Terminal Aerodrome Forecast
Issued by NWS Des Moines, IA

Home | Current Version | Previous Version | Text Only | Print | Product List | Glossary On
Versions: 1 2 3 4 5 6 7 8 9 10 11 12 13 14 15 16 17 18 19 20 21 22 23 24 25 26 27 28 29 30 31 32
000
FTUS43 KDMX 220520
TAFDSM
TAF
KDSM 220520Z 2206/2306 19008KT P6SM FEW050 BKN150
     FM220800 21007KT P6SM VCTS SCT040CB BKN120
      TEMPO 2209/2211 5SM TSRA BR SCT020 BKN040CB
     FM221100 24008KT 6SM BR VCTS SCT015CB BKN080
     FM221300 24005KT P6SM SCT030 BKN080
     FM230000 18005KT P6SM SCT080 BKN150=

USA.gov is the U.S. government's official web portal to all federal, state and local government web resources and services.